Time;durP1;ratioP1;P1;durP2;ratioP2;P2;SDS_P1;SDS_P2;PMS_P1;PMS_P2;Temp;Humidity;BMP_temperature;BMP_pressure;BME280_temperature;BME280_humidity;BME280_pressure;Samples;Min_cycle;Max_cycle;Signal;HPM_P1;HPM_P2
2021/12/24 00:01:52;;;;;;;1.20;1.10;;;9.90;98.00;;;;;;5072466;28;20481;-68
2021/12/24 00:04:19;;;;;;;1.43;1.20;;;9.90;98.00;;;;;;5072343;28;20504;-68
2021/12/24 00:06:46;;;;;;;1.30;1.10;;;9.90;98.00;;;;;;5072496;28;20939;-68
2021/12/24 00:09:20;;;;;;;1.50;1.20;;;9.90;98.00;;;;;;5072123;28;20486;-68
2021/12/24 00:11:48;;;;;;;1.20;1.00;;;9.90;98.00;;;;;;5071899;28;20515;-68
2021/12/24 00:14:16;;;;;;;1.20;0.90;;;10.00;98.00;;;;;;5072005;28;20554;-68
2021/12/24 00:16:52;;;;;;;1.30;1.17;;;10.00;98.00;;;;;;5071596;28;20458;-68
2021/12/24 00:19:26;;;;;;;1.20;1.00;;;9.90;98.00;;;;;;5071187;28;20464;-68
2021/12/24 00:35:47;;;;;;;1.20;0.90;;;10.20;98.00;;;;;;5071854;28;20501;-68
2021/12/24 00:38:14;;;;;;;1.20;1.00;;;10.30;98.00;;;;;;5071831;28;20521;-68
2021/12/24 00:40:43;;;;;;;1.40;1.00;;;10.30;98.00;;;;;;5071950;28;20555;-68
2021/12/24 00:43:12;;;;;;;1.63;1.20;;;10.30;98.00;;;;;;5071732;28;20834;-68
2021/12/24 00:45:42;;;;;;;1.20;1.00;;;10.30;98.00;;;;;;5071547;28;20805;-68
2021/12/24 00:48:16;;;;;;;1.20;1.00;;;10.30;98.00;;;;;;5071701;28;20469;-68
2021/12/24 00:50:56;;;;;;;1.30;1.10;;;10.40;98.00;;;;;;5071081;28;20501;-68
2021/12/24 00:56:13;;;;;;;1.20;1.00;;;10.30;98.00;;;;;;5071746;28;20448;-68
2021/12/24 00:58:42;;;;;;;1.20;1.20;;;10.30;98.00;;;;;;5071437;28;20483;-68
2021/12/24 01:01:12;;;;;;;1.20;1.10;;;10.40;98.00;;;;;;5071286;28;21018;-68
2021/12/24 01:03:41;;;;;;;1.20;1.00;;;10.40;98.00;;;;;;5071522;28;20517;-68
2021/12/24 01:06:08;;;;;;;1.20;1.00;;;10.50;98.00;;;;;;5071139;28;20645;-68
2021/12/24 01:08:35;;;;;;;1.50;1.27;;;10.60;98.00;;;;;;5071492;28;20502;-68
2021/12/24 01:11:07;;;;;;;1.20;1.13;;;10.60;98.00;;;;;;5071563;28;20543;-68
2021/12/24 01:13:34;;;;;;;1.20;1.00;;;10.60;98.00;;;;;;5071447;28;20571;-68
2021/12/24 01:16:05;;;;;;;4.57;1.40;;;10.60;98.00;;;;;;5071503;28;20468;-68
2021/12/24 01:18:41;;;;;;;1.30;1.20;;;10.60;98.00;;;;;;5071469;28;20865;-68
2021/12/24 01:21:23;;;;;;;1.20;1.00;;;10.70;98.00;;;;;;5070991;28;20461;-68
2021/12/24 01:23:53;;;;;;;1.20;1.00;;;10.70;98.00;;;;;;5071423;28;20456;-68
2021/12/24 01:26:33;;;;;;;1.30;1.20;;;10.70;98.00;;;;;;5071359;28;20463;-68
2021/12/24 01:29:20;;;;;;;1.30;1.30;;;10.70;98.00;;;;;;5071515;28;20520;-68
2021/12/24 01:40:20;;;;;;;1.20;0.97;;;10.70;98.00;;;;;;5071815;28;20452;-68
2021/12/24 01:42:48;;;;;;;1.20;1.00;;;10.70;98.00;;;;;;5070903;28;20464;-68
2021/12/24 01:45:24;;;;;;;1.20;1.00;;;10.90;98.00;;;;;;5071235;28;20546;-68
2021/12/24 01:47:54;;;;;;;1.20;1.00;;;10.90;98.00;;;;;;5071231;28;20487;-68
2021/12/24 01:50:22;;;;;;;1.40;1.10;;;10.90;98.00;;;;;;5070695;28;20970;-68
2021/12/24 01:52:54;;;;;;;1.30;1.20;;;11.00;98.00;;;;;;5070753;28;20484;-68
2021/12/24 01:55:21;;;;;;;1.20;1.00;;;10.90;98.00;;;;;;5070834;28;20456;-68
2021/12/24 01:57:49;;;;;;;1.20;1.00;;;10.90;98.00;;;;;;5072346;28;20496;-68
2021/12/24 02:00:19;;;;;;;1.20;1.00;;;11.00;98.00;;;;;;5074510;28;20456;-68
2021/12/24 02:02:46;;;;;;;1.20;1.10;;;11.00;98.00;;;;;;5074339;28;20484;-68
2021/12/24 02:05:14;;;;;;;1.20;1.00;;;11.00;98.00;;;;;;5074710;28;20506;-68
2021/12/24 02:07:42;;;;;;;2.90;1.40;;;11.00;98.00;;;;;;5073709;28;20488;-68
2021/12/24 02:10:13;;;;;;;1.20;1.00;;;11.00;98.00;;;;;;5074343;28;20504;-68
2021/12/24 02:12:41;;;;;;;1.20;1.03;;;11.00;98.00;;;;;;5074125;28;20888;-68
2021/12/24 02:15:18;;;;;;;1.20;1.00;;;10.90;98.00;;;;;;5074211;28;20456;-68
2021/12/24 02:18:06;;;;;;;1.70;1.20;;;11.00;98.00;;;;;;5074166;28;20476;-68
2021/12/24 02:28:49;;;;;;;1.20;1.03;;;11.00;98.00;;;;;;5074182;28;20501;-68
2021/12/24 02:31:18;;;;;;;1.20;1.00;;;11.00;98.00;;;;;;5074120;28;20595;-68
2021/12/24 02:33:46;;;;;;;1.20;1.00;;;11.00;98.00;;;;;;5072649;28;20505;-68
2021/12/24 02:36:21;;;;;;;1.30;1.20;;;11.00;98.00;;;;;;5073657;28;20517;-68
2021/12/24 02:38:49;;;;;;;1.20;1.13;;;11.00;98.00;;;;;;5072628;28;20463;-68
2021/12/24 02:41:20;;;;;;;1.80;1.10;;;11.00;98.00;;;;;;5073950;28;20651;-68
2021/12/24 02:43:48;;;;;;;1.20;1.00;;;11.00;98.00;;;;;;5074248;28;20466;-68
2021/12/24 02:46:26;;;;;;;1.30;1.20;;;11.00;98.00;;;;;;5073877;28;20864;-68
2021/12/24 02:49:10;;;;;;;1.20;1.00;;;11.00;98.00;;;;;;5074050;28;20584;-68
2021/12/24 02:54:23;;;;;;;1.20;1.10;;;11.10;98.00;;;;;;5073806;28;20443;-68
2021/12/24 02:56:52;;;;;;;1.47;1.30;;;11.10;98.00;;;;;;5073714;28;20484;-68
2021/12/24 02:59:25;;;;;;;1.20;1.10;;;11.10;98.00;;;;;;5073887;28;20936;-68
2021/12/24 03:01:53;;;;;;;1.20;1.10;;;11.10;98.00;;;;;;5073484;28;20460;-68
2021/12/24 03:04:21;;;;;;;1.20;1.00;;;11.10;98.00;;;;;;5073630;28;20479;-68
2021/12/24 03:06:52;;;;;;;1.20;1.13;;;11.00;98.00;;;;;;5073014;28;20973;-68
2021/12/24 03:09:21;;;;;;;2.13;1.10;;;11.00;98.00;;;;;;5073017;28;20501;-68
2021/12/24 03:11:51;;;;;;;1.20;1.00;;;11.00;98.00;;;;;;5073071;28;20507;-68
2021/12/24 03:14:20;;;;;;;1.23;1.10;;;11.00;98.00;;;;;;5073115;28;20514;-68
2021/12/24 03:16:53;;;;;;;1.20;1.00;;;11.00;98.00;;;;;;5072828;28;20864;-68
2021/12/24 03:19:24;;;;;;;1.67;1.27;;;11.00;98.00;;;;;;5073038;28;20457;-68
2021/12/24 03:21:57;;;;;;;1.20;1.00;;;10.90;98.00;;;;;;5072971;28;20504;-68
2021/12/24 03:24:36;;;;;;;1.40;1.00;;;10.90;98.00;;;;;;5073009;28;20504;-68
2021/12/24 03:27:06;;;;;;;1.20;1.10;;;10.90;98.00;;;;;;5073029;28;20540;-68
2021/12/24 03:29:33;;;;;;;1.30;1.03;;;10.80;98.00;;;;;;5072986;28;20454;-68
2021/12/24 03:32:01;;;;;;;1.67;1.30;;;10.80;98.00;;;;;;5072566;28;20536;-68
2021/12/24 03:34:29;;;;;;;1.43;1.10;;;10.80;98.00;;;;;;5072078;28;20481;-68
2021/12/24 03:36:59;;;;;;;3.20;1.20;;;10.80;98.00;;;;;;5072695;28;20504;-68
2021/12/24 03:39:26;;;;;;;1.20;0.90;;;10.80;98.00;;;;;;5072527;28;20539;-68
2021/12/24 03:41:53;;;;;;;1.40;1.07;;;10.80;98.00;;;;;;5072597;28;20460;-68
2021/12/24 03:44:21;;;;;;;1.23;1.13;;;10.80;98.00;;;;;;5072690;28;20455;-68
2021/12/24 03:46:57;;;;;;;1.20;1.03;;;10.80;98.00;;;;;;5072521;28;20459;-68
2021/12/24 03:49:33;;;;;;;1.50;1.50;;;10.80;98.00;;;;;;5072587;28;20451;-68
2021/12/24 03:52:16;;;;;;;1.20;0.97;;;10.80;98.00;;;;;;5072269;28;20459;-68
2021/12/24 03:54:58;;;;;;;1.20;0.90;;;10.80;98.00;;;;;;5072452;28;20460;-68
2021/12/24 03:57:26;;;;;;;1.30;1.10;;;10.80;98.00;;;;;;5072487;28;20782;-68
2021/12/24 03:59:54;;;;;;;1.20;1.10;;;10.80;98.00;;;;;;5072252;28;20453;-68
2021/12/24 04:02:21;;;;;;;1.20;1.00;;;10.80;98.00;;;;;;5071176;28;20495;-68
2021/12/24 04:04:49;;;;;;;1.77;1.00;;;10.80;98.00;;;;;;5072510;28;20488;-68
2021/12/24 04:07:23;;;;;;;1.40;1.30;;;10.80;98.00;;;;;;5072123;28;20496;-68
2021/12/24 04:09:58;;;;;;;1.20;1.00;;;10.80;98.00;;;;;;5072097;28;20906;-68
2021/12/24 04:12:26;;;;;;;1.20;1.00;;;10.70;98.00;;;;;;5072082;28;20484;-68
2021/12/24 04:14:54;;;;;;;1.30;1.20;;;10.70;98.00;;;;;;5072468;28;20467;-68
2021/12/24 04:17:21;;;;;;;1.20;0.90;;;10.70;98.00;;;;;;5072030;28;20481;-68
2021/12/24 04:25:16;;;;;;;1.80;1.20;;;10.70;98.00;;;;;;5072188;28;20440;-68
2021/12/24 04:27:43;;;;;;;1.60;1.30;;;10.60;98.00;;;;;;5071913;28;20922;-68
2021/12/24 04:30:14;;;;;;;1.37;1.10;;;10.60;98.00;;;;;;5071802;28;20460;-68
2021/12/24 04:32:55;;;;;;;1.20;1.07;;;10.70;98.00;;;;;;5071621;28;20520;-68
2021/12/24 04:35:38;;;;;;;1.20;1.10;;;10.60;98.00;;;;;;5071944;28;20525;-68
2021/12/24 04:51:56;;;;;;;1.20;1.00;;;10.50;98.00;;;;;;5071608;28;20444;-68
2021/12/24 05:02:50;;;;;;;2.77;1.87;;;10.40;98.00;;;;;;5071558;28;20440;-68
2021/12/24 05:05:27;;;;;;;1.20;1.10;;;10.40;98.00;;;;;;5071543;28;20509;-68
2021/12/24 05:10:38;;;;;;;1.20;1.00;;;10.40;98.00;;;;;;5069557;28;20605;-68
2021/12/24 05:13:07;;;;;;;1.30;1.00;;;10.30;98.00;;;;;;5071369;28;20488;-68
2021/12/24 05:15:36;;;;;;;1.30;1.03;;;10.30;98.00;;;;;;5071366;28;20473;-68
2021/12/24 05:18:15;;;;;;;1.30;1.20;;;10.30;98.00;;;;;;5071261;28;20456;-68
2021/12/24 05:23:27;;;;;;;1.20;1.00;;;10.30;98.00;;;;;;5071273;28;20542;-68
2021/12/24 05:25:56;;;;;;;1.73;1.30;;;10.30;98.00;;;;;;5070980;28;20892;-68
2021/12/24 05:28:23;;;;;;;1.30;1.00;;;10.30;98.00;;;;;;5070387;28;20541;-68
2021/12/24 05:30:50;;;;;;;1.43;1.10;;;10.30;98.00;;;;;;5070556;28;20485;-68
2021/12/24 05:33:18;;;;;;;1.30;1.03;;;10.30;98.00;;;;;;5072836;28;20833;-68
2021/12/24 05:35:46;;;;;;;1.20;1.00;;;10.20;98.00;;;;;;5075057;28;20450;-68
2021/12/24 05:38:22;;;;;;;1.30;1.23;;;10.20;98.00;;;;;;5075043;28;20458;-68
2021/12/24 05:40:49;;;;;;;1.20;0.90;;;10.20;98.00;;;;;;5074775;28;20459;-68
2021/12/24 05:43:18;;;;;;;1.30;1.10;;;10.20;98.00;;;;;;5074960;28;20449;-68
2021/12/24 05:45:45;;;;;;;1.20;1.00;;;10.20;98.00;;;;;;5075283;28;20471;-68
2021/12/24 05:48:12;;;;;;;1.20;0.90;;;10.10;98.00;;;;;;5074918;28;21008;-68
2021/12/24 05:50:40;;;;;;;1.30;1.10;;;10.20;98.00;;;;;;5074576;28;20465;-68
2021/12/24 05:53:07;;;;;;;1.20;1.00;;;10.10;98.00;;;;;;5074351;28;20516;-68
2021/12/24 05:55:35;;;;;;;1.30;1.30;;;10.10;98.00;;;;;;5074518;28;20502;-68
2021/12/24 05:58:07;;;;;;;1.30;1.07;;;10.10;98.00;;;;;;5074848;28;20454;-68
2021/12/24 06:00:38;;;;;;;1.20;0.90;;;10.20;98.00;;;;;;5074590;28;20903;-68
2021/12/24 06:03:06;;;;;;;1.20;1.10;;;10.20;98.00;;;;;;5074468;28;20516;-68
2021/12/24 06:05:33;;;;;;;1.20;1.00;;;10.20;98.00;;;;;;5074416;28;20452;-68
2021/12/24 06:08:00;;;;;;;1.20;1.10;;;10.20;98.00;;;;;;5074573;28;20486;-68
2021/12/24 06:10:28;;;;;;;1.20;0.90;;;10.20;98.00;;;;;;5073672;28;20549;-68
2021/12/24 06:12:56;;;;;;;1.20;1.00;;;10.20;98.00;;;;;;5073979;28;20525;-68
2021/12/24 06:15:25;;;;;;;1.30;1.13;;;10.20;98.00;;;;;;5074223;28;20493;-68
2021/12/24 06:17:56;;;;;;;1.20;1.00;;;10.20;98.00;;;;;;5074177;28;20532;-68
2021/12/24 06:20:25;;;;;;;1.20;1.10;;;10.20;98.00;;;;;;5074241;28;20532;-68
2021/12/24 06:22:54;;;;;;;1.20;1.00;;;10.10;98.00;;;;;;5074184;28;20499;-68
2021/12/24 06:25:21;;;;;;;1.20;1.00;;;10.10;98.00;;;;;;5074072;28;20462;-68
2021/12/24 06:27:48;;;;;;;1.20;1.07;;;10.10;98.00;;;;;;5074073;28;20460;-68
2021/12/24 06:30:16;;;;;;;1.20;0.90;;;10.00;98.00;;;;;;5074260;28;20543;-68
2021/12/24 06:32:44;;;;;;;1.20;0.90;;;10.10;98.00;;;;;;5073724;28;20453;-68
2021/12/24 06:35:12;;;;;;;1.20;1.20;;;10.10;98.00;;;;;;5074021;28;20893;-68
2021/12/24 06:37:39;;;;;;;1.20;1.00;;;10.10;98.00;;;;;;5073834;28;20505;-68
2021/12/24 06:40:09;;;;;;;1.70;1.10;;;10.10;98.00;;;;;;5073582;28;20460;-68
2021/12/24 06:42:36;;;;;;;1.33;1.30;;;10.10;98.00;;;;;;5073764;28;20457;-68
2021/12/24 06:45:04;;;;;;;1.20;1.00;;;10.10;98.00;;;;;;5073355;28;20505;-68
2021/12/24 06:47:31;;;;;;;2.00;1.03;;;10.10;98.00;;;;;;5072513;28;20517;-68
2021/12/24 06:49:58;;;;;;;1.20;1.00;;;10.10;98.00;;;;;;5072477;28;20547;-68
2021/12/24 06:52:26;;;;;;;1.30;1.10;;;10.10;98.00;;;;;;5073662;28;20500;-70
2021/12/24 06:54:56;;;;;;;1.20;1.00;;;10.10;98.00;;;;;;5073279;28;20519;-67
2021/12/24 06:57:25;;;;;;;1.30;1.10;;;10.00;98.00;;;;;;5073103;28;20503;-67
2021/12/24 06:59:52;;;;;;;1.20;1.00;;;10.00;98.00;;;;;;5073353;28;20707;-67
2021/12/24 07:02:19;;;;;;;1.20;1.00;;;10.00;98.00;;;;;;5073320;28;20459;-67
2021/12/24 07:04:46;;;;;;;1.20;0.90;;;10.10;98.00;;;;;;5072401;28;20485;-67
2021/12/24 07:07:13;;;;;;;1.20;1.00;;;10.10;98.00;;;;;;5073372;28;20514;-67
2021/12/24 07:09:42;;;;;;;1.20;1.00;;;10.10;98.00;;;;;;5073392;28;20485;-68
2021/12/24 07:12:11;;;;;;;1.20;1.00;;;10.10;98.00;;;;;;5072202;28;20480;-67
2021/12/24 07:14:39;;;;;;;1.20;1.03;;;10.10;98.00;;;;;;5072899;28;20998;-67
2021/12/24 07:17:06;;;;;;;1.20;1.00;;;10.10;98.00;;;;;;5073224;28;20464;-68
2021/12/24 07:19:34;;;;;;;1.20;0.90;;;10.10;98.00;;;;;;5073441;28;20506;-67
2021/12/24 07:22:02;;;;;;;1.30;1.07;;;10.10;98.00;;;;;;5072609;28;20951;-67
2021/12/24 07:24:29;;;;;;;1.20;1.00;;;10.10;98.00;;;;;;5072932;28;20952;-67
2021/12/24 07:26:57;;;;;;;1.20;1.20;;;10.10;98.00;;;;;;5072984;28;20458;-68
2021/12/24 07:29:24;;;;;;;1.30;1.00;;;10.10;98.00;;;;;;5072750;28;20538;-68
2021/12/24 07:31:52;;;;;;;1.30;1.10;;;10.10;98.00;;;;;;5072693;28;20499;-67
2021/12/24 07:34:19;;;;;;;2.17;1.10;;;10.10;98.00;;;;;;5072822;28;20484;-67
2021/12/24 07:36:46;;;;;;;2.23;1.27;;;10.00;98.00;;;;;;5072886;28;20460;-68
2021/12/24 07:39:12;;;;;;;1.20;0.90;;;10.00;98.00;;;;;;5072592;28;20549;-68
2021/12/24 07:41:40;;;;;;;1.20;0.90;;;10.00;98.00;;;;;;5072404;28;20874;-68
2021/12/24 07:44:08;;;;;;;1.90;1.43;;;10.00;98.00;;;;;;5072748;28;21156;-68
2021/12/24 07:46:41;;;;;;;2.13;1.30;;;10.00;98.00;;;;;;5072222;28;20514;-68
2021/12/24 07:49:19;;;;;;;1.20;1.00;;;10.00;98.00;;;;;;5072548;28;20955;-67
2021/12/24 07:54:41;;;;;;;1.70;1.20;;;9.90;98.00;;;;;;5046708;28;20492;-67
2021/12/24 07:57:10;;;;;;;1.23;1.10;;;10.00;98.00;;;;;;5072189;28;20504;-67
2021/12/24 07:59:39;;;;;;;1.20;0.90;;;10.00;98.00;;;;;;5072321;28;20500;-68
2021/12/24 08:02:10;;;;;;;1.20;1.00;;;10.00;98.00;;;;;;5072320;28;20456;-68
2021/12/24 08:04:38;;;;;;;2.23;1.20;;;10.00;98.00;;;;;;5072231;28;20498;-72
2021/12/24 08:07:05;;;;;;;1.70;1.03;;;10.00;98.00;;;;;;5071575;28;20548;-66
2021/12/24 08:09:32;;;;;;;1.30;1.10;;;10.00;98.00;;;;;;5070771;28;20505;-67
2021/12/24 08:11:59;;;;;;;1.20;1.00;;;9.90;98.00;;;;;;5071980;28;21011;-68
2021/12/24 08:14:26;;;;;;;2.33;1.20;;;9.90;98.00;;;;;;5067589;28;20585;-67
2021/12/24 08:16:55;;;;;;;1.20;1.00;;;9.90;98.00;;;;;;5069398;28;20517;-68
2021/12/24 08:19:22;;;;;;;1.30;1.00;;;9.90;98.00;;;;;;5069118;28;20480;-67
2021/12/24 08:21:49;;;;;;;1.20;1.00;;;9.90;98.00;;;;;;5069306;28;20857;-67
2021/12/24 08:24:16;;;;;;;1.63;1.00;;;9.90;98.00;;;;;;5069110;28;20459;-68
2021/12/24 08:26:44;;;;;;;1.20;1.10;;;9.90;98.00;;;;;;5069151;28;20488;-68
2021/12/24 08:29:11;;;;;;;1.20;1.00;;;9.90;98.00;;;;;;5069248;28;20500;-68
2021/12/24 08:31:39;;;;;;;1.20;0.90;;;9.90;98.00;;;;;;5069161;28;20453;-68
2021/12/24 08:34:12;;;;;;;1.20;1.00;;;9.90;98.00;;;;;;5068950;28;20577;-68
2021/12/24 08:36:40;;;;;;;1.30;1.10;;;9.90;98.00;;;;;;5069103;28;20467;-68
2021/12/24 08:39:12;;;;;;;1.40;1.10;;;9.90;98.00;;;;;;5070382;28;20882;-68
2021/12/24 08:41:39;;;;;;;1.30;1.20;;;9.90;98.00;;;;;;5071752;28;20549;-68
2021/12/24 08:44:07;;;;;;;1.20;1.00;;;9.90;98.00;;;;;;5071697;28;20966;-67
2021/12/24 08:46:36;;;;;;;1.20;1.00;;;10.00;98.00;;;;;;5071709;28;20492;-68
2021/12/24 08:49:03;;;;;;;1.20;1.10;;;10.00;98.00;;;;;;5071353;28;20460;-68
2021/12/24 08:51:32;;;;;;;1.30;1.20;;;10.00;98.00;;;;;;5071648;28;20542;-69
2021/12/24 08:53:59;;;;;;;1.30;1.00;;;10.00;98.00;;;;;;5070181;28;20566;-68
2021/12/24 08:56:26;;;;;;;1.40;1.10;;;10.00;98.00;;;;;;5071505;28;20564;-68
2021/12/24 08:58:55;;;;;;;1.20;1.10;;;10.00;98.00;;;;;;5071535;28;20539;-67
2021/12/24 09:01:22;;;;;;;2.50;1.10;;;10.00;98.00;;;;;;5071014;28;20459;-68
2021/12/24 09:03:49;;;;;;;1.43;1.07;;;10.10;98.00;;;;;;5070968;28;20882;-68
2021/12/24 09:06:16;;;;;;;1.20;0.93;;;10.10;98.00;;;;;;5072113;28;20878;-68
2021/12/24 09:08:45;;;;;;;1.10;0.90;;;10.10;98.00;;;;;;5075363;28;20500;-68
2021/12/24 09:11:12;;;;;;;1.30;1.00;;;10.10;98.00;;;;;;5075516;28;20574;-69
2021/12/24 09:13:39;;;;;;;1.30;1.20;;;10.10;98.00;;;;;;5075180;28;20463;-69
2021/12/24 09:16:06;;;;;;;1.20;0.90;;;10.10;98.00;;;;;;5074965;28;20488;-68
2021/12/24 09:18:35;;;;;;;2.73;1.23;;;10.10;98.00;;;;;;5075165;28;20459;-67
2021/12/24 09:21:03;;;;;;;1.20;0.93;;;10.10;98.00;;;;;;5075703;28;20455;-69
2021/12/24 09:23:31;;;;;;;1.17;0.97;;;10.10;98.00;;;;;;5075334;28;20978;-69
2021/12/24 09:25:59;;;;;;;1.10;0.90;;;10.00;98.00;;;;;;5075375;28;20460;-68
2021/12/24 09:28:26;;;;;;;1.20;1.10;;;10.10;98.00;;;;;;5075221;28;20513;-68
2021/12/24 09:30:53;;;;;;;1.20;1.00;;;10.00;98.00;;;;;;5075233;28;20843;-68
2021/12/24 09:33:20;;;;;;;1.20;1.17;;;10.00;98.00;;;;;;5073882;28;20488;-68
2021/12/24 09:35:48;;;;;;;1.20;1.03;;;9.90;98.00;;;;;;5074977;28;20526;-69
2021/12/24 09:38:15;;;;;;;1.20;1.00;;;9.90;98.00;;;;;;5074980;28;20879;-68
2021/12/24 09:40:42;;;;;;;1.20;0.90;;;9.80;98.00;;;;;;5057417;28;20543;-69
2021/12/24 09:43:11;;;;;;;1.20;1.00;;;9.80;98.00;;;;;;5073760;28;20505;-68
2021/12/24 09:45:38;;;;;;;1.60;1.10;;;9.90;98.00;;;;;;5075050;28;20490;-69
2021/12/24 09:48:05;;;;;;;1.20;1.10;;;9.80;98.00;;;;;;5074892;28;20491;-69
2021/12/24 09:50:32;;;;;;;1.53;1.10;;;9.80;98.00;;;;;;5074841;28;20517;-69
2021/12/24 09:52:59;;;;;;;1.20;1.00;;;9.80;98.00;;;;;;5074887;28;20488;-68
2021/12/24 09:55:28;;;;;;;1.20;1.00;;;9.70;98.00;;;;;;5074823;28;20527;-69
2021/12/24 09:57:55;;;;;;;1.80;1.07;;;9.70;98.00;;;;;;5074957;28;20546;-68
2021/12/24 10:00:26;;;;;;;1.37;1.27;;;9.70;98.00;;;;;;5074416;28;20539;-68
2021/12/24 10:02:54;;;;;;;1.80;1.67;;;9.60;98.00;;;;;;5074857;28;20456;-67
2021/12/24 10:05:46;;;;;;;1.90;1.10;;;9.60;98.00;;;;;;5074519;28;20515;-68
2021/12/24 10:08:20;;;;;;;1.20;1.10;;;9.60;98.00;;;;;;5059287;28;20456;-69
2021/12/24 10:10:50;;;;;;;1.20;1.10;;;9.70;98.00;;;;;;5074304;28;20491;-69
2021/12/24 10:13:33;;;;;;;1.20;0.97;;;9.70;98.00;;;;;;5074303;28;20488;-70
2021/12/24 10:16:04;;;;;;;1.20;1.10;;;9.70;98.00;;;;;;5073840;28;20512;-69
2021/12/24 10:18:39;;;;;;;1.10;1.00;;;9.60;98.00;;;;;;5073221;28;21164;-67
2021/12/24 10:21:09;;;;;;;1.20;1.10;;;9.60;98.00;;;;;;5073931;28;20486;-67
2021/12/24 10:23:49;;;;;;;1.20;1.00;;;9.50;98.00;;;;;;5074078;28;20484;-69
2021/12/24 10:26:21;;;;;;;1.20;1.10;;;9.50;98.00;;;;;;5073926;28;20466;-67
2021/12/24 10:28:55;;;;;;;1.10;1.00;;;9.50;98.00;;;;;;5073924;28;20521;-67
2021/12/24 10:31:25;;;;;;;1.10;0.90;;;9.50;98.00;;;;;;5073930;28;20490;-68
2021/12/24 10:34:14;;;;;;;1.10;0.90;;;9.50;98.00;;;;;;5073894;28;20811;-68
2021/12/24 10:37:04;;;;;;;1.20;1.00;;;9.50;98.00;;;;;;5073494;28;20553;-68
2021/12/24 10:39:34;;;;;;;2.43;1.43;;;9.50;98.00;;;;;;5073864;28;20464;-70
2021/12/24 10:42:04;;;;;;;1.50;1.10;;;9.50;98.00;;;;;;5073584;28;20542;-70
2021/12/24 10:44:34;;;;;;;1.77;1.20;;;9.40;98.00;;;;;;5073708;28;20823;-70
2021/12/24 10:47:07;;;;;;;1.17;1.10;;;9.40;98.00;;;;;;5073429;28;20513;-70
2021/12/24 10:49:53;;;;;;;1.20;1.00;;;9.40;98.00;;;;;;5072873;28;20958;-69
2021/12/24 10:52:44;;;;;;;1.10;0.93;;;9.40;98.00;;;;;;5072888;28;20454;-69
2021/12/24 10:55:14;;;;;;;1.20;0.90;;;9.40;98.00;;;;;;5072975;28;20494;-69
2021/12/24 10:57:43;;;;;;;1.10;1.00;;;9.40;98.00;;;;;;5072170;28;20456;-70
2021/12/24 11:00:19;;;;;;;1.10;0.97;;;9.30;98.00;;;;;;5073461;28;20489;-70
2021/12/24 11:02:53;;;;;;;2.27;1.50;;;9.40;98.00;;;;;;5073549;28;20491;-70
2021/12/24 11:05:30;;;;;;;1.73;1.00;;;9.40;98.00;;;;;;5073464;28;20459;-69
2021/12/24 11:07:59;;;;;;;1.10;0.90;;;9.30;98.00;;;;;;5073345;28;20459;-70
2021/12/24 11:10:27;;;;;;;1.80;1.20;;;9.30;98.00;;;;;;5073167;28;20505;-70
2021/12/24 11:12:56;;;;;;;1.47;1.40;;;9.40;98.00;;;;;;5073362;28;20533;-70
2021/12/24 11:15:30;;;;;;;1.10;1.00;;;9.30;98.00;;;;;;5072824;28;20481;-70
2021/12/24 11:18:00;;;;;;;1.10;0.90;;;9.40;98.00;;;;;;5073074;28;20945;-70
2021/12/24 11:20:29;;;;;;;1.10;0.90;;;9.40;98.00;;;;;;5072809;28;20487;-70
2021/12/24 11:23:00;;;;;;;1.10;1.00;;;9.50;98.00;;;;;;5072460;28;20458;-70
2021/12/24 11:25:30;;;;;;;1.13;0.97;;;9.40;98.00;;;;;;5073506;28;20458;-70
2021/12/24 11:27:57;;;;;;;1.10;0.90;;;9.40;98.00;;;;;;5073018;28;20509;-68
2021/12/24 11:30:26;;;;;;;1.17;1.00;;;9.40;98.00;;;;;;5071863;28;20496;-69
2021/12/24 11:32:54;;;;;;;1.20;1.10;;;9.50;98.00;;;;;;5071272;28;20454;-68
2021/12/24 11:35:23;;;;;;;1.30;1.13;;;9.50;98.00;;;;;;5072513;28;20573;-69
2021/12/24 11:37:51;;;;;;;1.10;0.90;;;9.50;98.00;;;;;;5073065;28;20485;-68
2021/12/24 11:40:20;;;;;;;1.50;1.17;;;9.50;98.00;;;;;;5075458;28;20516;-68
2021/12/24 11:42:52;;;;;;;1.20;1.00;;;9.40;98.00;;;;;;5072993;28;20487;-69
2021/12/24 11:45:23;;;;;;;1.13;1.10;;;9.40;98.00;;;;;;5072675;28;20451;-69
2021/12/24 11:47:50;;;;;;;1.10;1.00;;;9.40;98.00;;;;;;5072233;28;20475;-69
2021/12/24 11:50:18;;;;;;;1.17;1.00;;;9.40;98.00;;;;;;5072430;28;20493;-68
2021/12/24 11:52:51;;;;;;;1.97;1.33;;;9.40;98.00;;;;;;5071322;28;20499;-68
2021/12/24 11:55:19;;;;;;;1.30;1.27;;;9.40;98.00;;;;;;5072398;28;20968;-67
2021/12/24 11:57:59;;;;;;;1.20;1.00;;;9.40;98.00;;;;;;5072227;28;20466;-68
2021/12/24 12:00:30;;;;;;;1.30;1.10;;;9.40;98.00;;;;;;5072281;28;20457;-68
2021/12/24 12:02:58;;;;;;;1.10;0.93;;;9.40;98.00;;;;;;5072306;28;20518;-68
2021/12/24 12:05:32;;;;;;;1.30;1.10;;;9.40;98.00;;;;;;5072175;28;20496;-69
2021/12/24 12:08:33;;;;;;;1.20;1.00;;;9.50;98.00;;;;;;5072349;28;20464;-69
2021/12/24 12:11:02;;;;;;;1.10;1.00;;;9.50;98.00;;;;;;5072149;28;20512;-68
2021/12/24 12:13:47;;;;;;;1.40;1.20;;;9.50;98.00;;;;;;5071975;28;20458;-68
2021/12/24 12:16:16;;;;;;;1.20;1.10;;;9.50;98.00;;;;;;5071944;28;20488;-68
2021/12/24 12:18:47;;;;;;;1.80;1.17;;;9.50;98.00;;;;;;5072050;28;20480;-67
2021/12/24 12:21:22;;;;;;;1.10;0.90;;;9.60;98.00;;;;;;5072028;28;20831;-68
2021/12/24 12:26:43;;;;;;;1.40;1.10;;;9.70;98.00;;;;;;5072075;28;20456;-68
2021/12/24 12:29:19;;;;;;;1.10;0.90;;;9.80;98.00;;;;;;5071876;28;20488;-68
2021/12/24 12:31:48;;;;;;;1.10;1.00;;;9.80;98.00;;;;;;5071917;28;20493;-68
2021/12/24 12:34:53;;;;;;;2.03;1.10;;;9.80;98.00;;;;;;5071702;28;20488;-68
2021/12/24 12:37:23;;;;;;;1.50;1.10;;;9.90;98.00;;;;;;5071759;28;20552;-69
2021/12/24 12:39:54;;;;;;;1.10;1.00;;;9.90;98.00;;;;;;5071781;28;21019;-69
2021/12/24 12:42:24;;;;;;;1.20;1.00;;;9.90;98.00;;;;;;5071440;28;20512;-69
2021/12/24 12:44:55;;;;;;;1.10;0.93;;;9.90;98.00;;;;;;5071853;28;20465;-69
2021/12/24 12:47:27;;;;;;;1.10;1.00;;;9.90;98.00;;;;;;5071819;28;20452;-69
2021/12/24 12:50:13;;;;;;;1.20;1.10;;;9.80;98.00;;;;;;5072012;28;20524;-68
2021/12/24 12:52:41;;;;;;;1.30;1.17;;;9.90;98.00;;;;;;5071846;28;21031;-69
2021/12/24 12:55:28;;;;;;;2.03;1.40;;;9.90;98.00;;;;;;5071851;28;20515;-68
2021/12/24 12:58:18;;;;;;;1.27;1.10;;;9.90;98.00;;;;;;5071764;28;20541;-68
2021/12/24 13:01:03;;;;;;;1.20;0.97;;;9.90;98.00;;;;;;5071865;28;20499;-68
2021/12/24 13:03:30;;;;;;;1.10;0.90;;;9.90;98.00;;;;;;5071167;28;21279;-68
2021/12/24 13:06:08;;;;;;;1.10;0.90;;;9.90;98.00;;;;;;5071197;28;20461;-68
2021/12/24 13:08:37;;;;;;;1.10;1.00;;;9.90;98.00;;;;;;5071128;28;20475;-69
2021/12/24 13:11:08;;;;;;;2.13;1.10;;;9.90;98.00;;;;;;5071271;28;20558;-69
2021/12/24 13:13:52;;;;;;;1.10;0.97;;;9.90;98.00;;;;;;5071195;28;20464;-69
2021/12/24 13:16:21;;;;;;;1.10;1.00;;;9.90;98.00;;;;;;5071388;28;20492;-69
2021/12/24 13:18:57;;;;;;;1.10;0.90;;;9.90;98.00;;;;;;5071102;28;20534;-69
2021/12/24 13:24:12;;;;;;;1.10;0.90;;;9.90;98.00;;;;;;5070915;28;20490;-69
2021/12/24 13:26:42;;;;;;;1.40;1.17;;;9.90;98.00;;;;;;5071032;28;20561;-68
2021/12/24 13:29:16;;;;;;;1.10;1.10;;;10.00;98.00;;;;;;5071531;28;20465;-68
2021/12/24 13:31:51;;;;;;;1.10;0.90;;;10.00;98.00;;;;;;5071298;28;20596;-68
2021/12/24 13:34:18;;;;;;;1.10;0.90;;;10.00;98.00;;;;;;5070884;28;20612;-68
2021/12/24 13:36:45;;;;;;;1.10;0.90;;;9.90;98.00;;;;;;5070669;28;20487;-68
2021/12/24 13:39:15;;;;;;;1.10;0.90;;;9.90;98.00;;;;;;5070974;28;20482;-69
2021/12/24 13:41:46;;;;;;;1.10;0.90;;;9.90;98.00;;;;;;5071067;28;20510;-68
2021/12/24 13:44:25;;;;;;;1.10;1.00;;;9.90;98.00;;;;;;5065910;28;20475;-71
2021/12/24 13:47:02;;;;;;;1.10;1.00;;;9.90;98.00;;;;;;5067776;28;20440;-70
2021/12/24 13:49:46;;;;;;;1.30;1.10;;;9.90;98.00;;;;;;5065607;28;20605;-70
2021/12/24 13:55:19;;;;;;;1.10;0.93;;;10.00;98.00;;;;;;4989740;28;20459;-72
2021/12/24 13:57:53;;;;;;;1.10;1.00;;;10.00;98.00;;;;;;5051087;28;20467;-74
2021/12/24 14:00:21;;;;;;;1.33;1.00;;;9.90;98.00;;;;;;5074815;28;20469;-72
2021/12/24 14:02:53;;;;;;;1.10;0.90;;;9.90;98.00;;;;;;5074352;28;20457;-72
2021/12/24 14:05:25;;;;;;;1.77;1.30;;;9.90;98.00;;;;;;5074370;28;20464;-72
2021/12/24 14:08:12;;;;;;;1.17;1.00;;;9.90;98.00;;;;;;5074408;28;20456;-72
2021/12/24 14:10:40;;;;;;;1.10;0.90;;;9.90;98.00;;;;;;5074505;28;20566;-72
2021/12/24 14:13:13;;;;;;;1.10;1.00;;;9.90;98.00;;;;;;5073894;28;20456;-72
2021/12/24 14:18:45;;;;;;;1.10;0.97;;;9.90;98.00;;;;;;5074291;28;20460;-70
2021/12/24 14:21:56;;;;;;;1.50;1.37;;;9.80;98.00;;;;;;5074881;28;20505;-71
2021/12/24 14:24:26;;;;;;;1.10;1.00;;;9.80;98.00;;;;;;5074837;28;20455;-71
2021/12/24 14:26:57;;;;;;;1.10;0.90;;;9.80;98.00;;;;;;5074615;28;20942;-72
2021/12/24 14:29:29;;;;;;;1.10;1.00;;;9.70;98.00;;;;;;5074511;28;20460;-72
2021/12/24 14:31:59;;;;;;;1.20;1.00;;;9.70;98.00;;;;;;5074286;28;20522;-72
2021/12/24 14:34:37;;;;;;;1.20;1.20;;;9.60;98.00;;;;;;5073921;28;20520;-72